Time;durP1;ratioP1;P1;durP2;ratioP2;P2;SDS_P1;SDS_P2;PMS_P1;PMS_P2;Temp;Humidity;BMP_temperature;BMP_pressure;BME280_temperature;BME280_humidity;BME280_pressure;Samples;Min_cycle;Max_cycle;Signal;HPM_P1;HPM_P2
2023/08/21 00:01:28;;;;;;;4.67;2.70;;;16.60;99.90;;;;;;5032503;28;20698;-83
2023/08/21 00:03:55;;;;;;;5.23;3.00;;;16.50;99.90;;;;;;5039764;28;20228;-83
2023/08/21 00:06:22;;;;;;;6.90;3.50;;;16.40;99.90;;;;;;5043399;28;20243;-83
2023/08/21 00:08:49;;;;;;;6.13;3.60;;;16.40;99.90;;;;;;5063842;28;20251;-82
2023/08/21 00:11:15;;;;;;;5.43;2.70;;;16.40;99.90;;;;;;5046989;28;20226;-82
2023/08/21 00:13:44;;;;;;;7.27;3.17;;;16.30;99.90;;;;;;5031918;28;20248;-82
2023/08/21 00:16:11;;;;;;;7.10;3.20;;;16.30;99.90;;;;;;5046373;28;20258;-81
2023/08/21 00:18:38;;;;;;;6.37;3.10;;;16.20;99.90;;;;;;5067232;28;20219;-82
2023/08/21 00:21:05;;;;;;;4.72;3.38;;;16.20;99.90;;;;;;5036058;28;20307;-83
2023/08/21 00:23:32;;;;;;;6.87;3.23;;;16.20;99.90;;;;;;5065883;28;20265;-83
2023/08/21 00:25:59;;;;;;;7.43;3.17;;;16.20;99.90;;;;;;5065744;28;20219;-82
2023/08/21 00:28:25;;;;;;;8.10;3.60;;;16.10;99.90;;;;;;5058731;28;20591;-81
2023/08/21 00:31:01;;;;;;;6.47;3.30;;;16.10;99.90;;;;;;5050065;28;20227;-81
2023/08/21 00:33:28;;;;;;;4.87;3.00;;;16.00;99.90;;;;;;5061832;28;20238;-81
2023/08/21 00:35:55;;;;;;;5.53;3.20;;;16.00;99.90;;;;;;5041021;28;20219;-82
2023/08/21 00:38:21;;;;;;;7.47;3.20;;;16.00;99.90;;;;;;5037549;28;20228;-81
2023/08/21 00:40:49;;;;;;;6.67;3.53;;;16.00;99.90;;;;;;5036421;28;20677;-81
2023/08/21 00:43:15;;;;;;;7.80;3.70;;;16.00;99.90;;;;;;5029507;28;20228;-82
2023/08/21 00:45:44;;;;;;;7.57;3.47;;;16.00;99.90;;;;;;5038175;28;20244;-80
2023/08/21 00:48:13;;;;;;;5.50;3.23;;;15.90;99.90;;;;;;5049308;28;20613;-81
2023/08/21 00:50:42;;;;;;;5.20;2.83;;;15.90;99.90;;;;;;5066454;28;21006;-82
2023/08/21 00:53:09;;;;;;;6.00;3.17;;;15.90;99.90;;;;;;5059551;28;20256;-82
2023/08/21 00:55:36;;;;;;;6.53;3.50;;;15.80;99.90;;;;;;5029866;28;20219;-83
2023/08/21 00:58:03;;;;;;;8.27;3.60;;;15.80;99.90;;;;;;5046382;28;20307;-83
2023/08/21 01:00:31;;;;;;;4.73;3.07;;;15.80;99.90;;;;;;5039553;28;20230;-83
2023/08/21 01:02:58;;;;;;;6.53;3.47;;;15.70;99.90;;;;;;5046808;28;20223;-84
2023/08/21 01:05:25;;;;;;;5.73;3.20;;;15.70;99.90;;;;;;5046718;28;20306;-83
2023/08/21 01:07:58;;;;;;;8.30;3.40;;;15.70;99.90;;;;;;5047075;28;20261;-84
2023/08/21 01:10:39;;;;;;;5.60;3.80;;;15.60;99.90;;;;;;5065275;28;20729;-83
2023/08/21 01:13:12;;;;;;;7.03;3.67;;;15.60;99.90;;;;;;5043041;28;20292;-82
2023/08/21 01:15:40;;;;;;;6.13;3.50;;;15.60;99.90;;;;;;5035898;28;20925;-82
2023/08/21 01:18:09;;;;;;;5.77;3.30;;;15.60;99.90;;;;;;5040988;28;20222;-82
2023/08/21 01:20:38;;;;;;;5.37;3.00;;;15.60;99.90;;;;;;5027629;28;20227;-82
2023/08/21 01:23:06;;;;;;;7.20;3.90;;;15.50;99.90;;;;;;5043939;28;20309;-83
2023/08/21 01:25:35;;;;;;;4.93;3.47;;;15.50;99.90;;;;;;5064946;28;20247;-82
2023/08/21 01:28:03;;;;;;;8.83;3.73;;;15.50;99.90;;;;;;5046478;28;20239;-82
2023/08/21 01:30:33;;;;;;;9.30;3.60;;;15.50;99.90;;;;;;5049519;28;20581;-82
2023/08/21 01:33:06;;;;;;;6.43;4.13;;;15.50;99.90;;;;;;5064141;28;20215;-82
2023/08/21 01:35:35;;;;;;;6.33;3.30;;;15.50;99.90;;;;;;5047898;28;20231;-83
2023/08/21 01:38:02;;;;;;;8.27;3.23;;;15.40;99.90;;;;;;5037354;28;20280;-83
2023/08/21 01:40:29;;;;;;;6.93;3.10;;;15.40;99.90;;;;;;5034946;28;20289;-83
2023/08/21 01:43:01;;;;;;;5.17;2.70;;;15.40;99.90;;;;;;5044046;28;20212;-84
2023/08/21 01:45:28;;;;;;;7.33;3.77;;;15.30;99.90;;;;;;5040340;28;20226;-84
2023/08/21 01:47:54;;;;;;;7.20;3.63;;;15.30;99.90;;;;;;5043288;28;20222;-83
2023/08/21 01:50:21;;;;;;;5.97;3.57;;;15.30;99.90;;;;;;5056537;28;20250;-83
2023/08/21 01:52:48;;;;;;;4.43;2.90;;;15.30;99.90;;;;;;5039255;28;20242;-81
2023/08/21 01:55:15;;;;;;;8.43;3.57;;;15.30;99.90;;;;;;5036968;28;20852;-82
2023/08/21 01:57:43;;;;;;;6.40;3.20;;;15.20;99.90;;;;;;5054035;28;20231;-82
2023/08/21 02:00:13;;;;;;;9.17;4.10;;;15.20;99.90;;;;;;5056020;28;20228;-83
2023/08/21 02:02:45;;;;;;;6.87;3.40;;;15.20;99.90;;;;;;5028948;28;20652;-82
2023/08/21 02:05:12;;;;;;;8.67;3.80;;;15.20;99.90;;;;;;5039077;28;20375;-82
2023/08/21 02:07:39;;;;;;;6.10;3.47;;;15.20;99.90;;;;;;5047370;28;20762;-84
2023/08/21 02:10:07;;;;;;;6.67;3.30;;;15.20;99.90;;;;;;5040637;28;20964;-83
2023/08/21 02:12:34;;;;;;;6.30;3.97;;;15.10;99.90;;;;;;5035570;28;20855;-83
2023/08/21 02:15:01;;;;;;;9.23;3.60;;;15.20;99.90;;;;;;5039504;28;20306;-82
2023/08/21 02:17:33;;;;;;;7.67;3.90;;;15.10;99.90;;;;;;5043168;28;20307;-83
2023/08/21 02:20:00;;;;;;;6.73;3.10;;;15.10;99.90;;;;;;5062301;28;20219;-83
2023/08/21 02:22:27;;;;;;;8.50;3.77;;;15.10;99.90;;;;;;5039903;28;20234;-84
2023/08/21 02:24:54;;;;;;;5.57;3.40;;;15.10;99.90;;;;;;5035658;28;20223;-83
2023/08/21 02:27:21;;;;;;;8.03;3.57;;;15.00;99.90;;;;;;5055725;28;20273;-83
2023/08/21 02:29:48;;;;;;;7.67;4.07;;;15.00;99.90;;;;;;5042643;28;20230;-82
2023/08/21 02:32:15;;;;;;;5.73;3.43;;;15.00;99.90;;;;;;5058404;28;20571;-83
2023/08/21 02:34:43;;;;;;;7.17;3.27;;;15.00;99.90;;;;;;5038077;28;20242;-83
2023/08/21 02:37:10;;;;;;;7.77;3.67;;;14.90;99.90;;;;;;5039289;28;20322;-82
2023/08/21 02:39:37;;;;;;;6.83;3.67;;;14.90;99.90;;;;;;5045750;28;20220;-82
2023/08/21 02:42:04;;;;;;;3.93;3.00;;;14.90;99.90;;;;;;5032738;28;20233;-82
2023/08/21 02:44:31;;;;;;;11.13;4.07;;;14.90;99.90;;;;;;5038541;28;20232;-82
2023/08/21 02:46:58;;;;;;;5.53;3.73;;;14.90;99.90;;;;;;5038620;28;20224;-82
2023/08/21 02:49:25;;;;;;;9.73;5.20;;;14.80;99.90;;;;;;5059053;28;20723;-83
2023/08/21 02:51:54;;;;;;;6.20;4.23;;;14.70;99.90;;;;;;5036380;28;20310;-84
2023/08/21 02:54:21;;;;;;;9.60;4.60;;;14.70;99.90;;;;;;5028705;28;20263;-84
2023/08/21 02:56:48;;;;;;;7.77;4.77;;;14.70;99.90;;;;;;5040419;28;20280;-84
2023/08/21 02:59:14;;;;;;;8.37;4.10;;;14.70;99.90;;;;;;5039558;28;20280;-83
2023/08/21 03:01:41;;;;;;;8.20;4.17;;;14.70;99.90;;;;;;5044483;28;20226;-83
2023/08/21 03:04:08;;;;;;;4.47;3.40;;;14.70;99.90;;;;;;5043698;28;20647;-82
2023/08/21 03:06:34;;;;;;;7.47;3.47;;;14.70;99.90;;;;;;5029706;28;20245;-83
2023/08/21 03:09:02;;;;;;;7.07;3.53;;;14.70;99.90;;;;;;5037322;28;20231;-83
2023/08/21 03:11:29;;;;;;;8.60;4.20;;;14.60;99.90;;;;;;5037182;28;20218;-84
2023/08/21 03:13:56;;;;;;;10.77;5.27;;;14.60;99.90;;;;;;5038661;28;20224;-84
2023/08/21 03:16:23;;;;;;;10.37;5.90;;;14.60;99.90;;;;;;5033985;28;20247;-85
2023/08/21 03:18:57;;;;;;;11.27;5.50;;;14.60;99.90;;;;;;5045719;28;20223;-83
2023/08/21 03:21:26;;;;;;;12.37;5.37;;;14.60;99.90;;;;;;5038239;28;20222;-83
2023/08/21 03:23:56;;;;;;;9.63;5.50;;;14.60;99.90;;;;;;5038637;28;20305;-84
2023/08/21 03:26:24;;;;;;;12.10;5.97;;;14.60;99.90;;;;;;5035722;28;20234;-84
2023/08/21 03:28:51;;;;;;;14.43;5.90;;;14.50;99.90;;;;;;5038864;28;20298;-85
2023/08/21 03:31:18;;;;;;;9.33;4.40;;;14.60;99.90;;;;;;5034161;28;20621;-83
2023/08/21 03:33:44;;;;;;;6.17;4.20;;;14.60;99.90;;;;;;5055573;28;20243;-83
2023/08/21 03:36:12;;;;;;;9.00;3.93;;;14.50;99.90;;;;;;5043597;28;20223;-82
2023/08/21 03:38:39;;;;;;;12.80;6.23;;;14.60;99.90;;;;;;5061263;28;20253;-84
2023/08/21 03:41:07;;;;;;;11.77;6.47;;;14.60;99.90;;;;;;5044248;28;20226;-85
2023/08/21 03:43:36;;;;;;;9.23;5.57;;;14.60;99.90;;;;;;5039449;28;20225;-84
2023/08/21 03:46:03;;;;;;;14.10;6.50;;;14.50;99.90;;;;;;5035604;28;20218;-84
2023/08/21 03:48:30;;;;;;;11.13;5.27;;;14.50;99.90;;;;;;5037130;28;20284;-85
2023/08/21 03:50:57;;;;;;;9.00;5.53;;;14.50;99.90;;;;;;5049260;28;20221;-85
2023/08/21 03:53:24;;;;;;;12.83;5.77;;;14.50;99.90;;;;;;5050977;28;20261;-85
2023/08/21 03:55:51;;;;;;;10.67;5.77;;;14.50;99.90;;;;;;5035566;28;20213;-82
2023/08/21 03:58:18;;;;;;;10.30;5.83;;;14.50;99.90;;;;;;5029853;28;20309;-83
2023/08/21 04:00:46;;;;;;;10.57;5.40;;;14.50;99.90;;;;;;5041334;28;20725;-84
2023/08/21 04:03:13;;;;;;;8.97;5.80;;;14.50;99.90;;;;;;5037246;28;20231;-84
2023/08/21 04:05:39;;;;;;;6.40;5.20;;;14.50;99.90;;;;;;5039418;28;20226;-84
2023/08/21 04:08:06;;;;;;;9.13;5.10;;;14.50;99.90;;;;;;5041777;28;20218;-85
2023/08/21 04:10:33;;;;;;;10.40;5.97;;;14.50;99.90;;;;;;5036925;28;20215;-84
2023/08/21 04:13:00;;;;;;;13.97;5.90;;;14.50;99.90;;;;;;5036660;28;20241;-83
2023/08/21 04:15:27;;;;;;;13.63;6.70;;;14.40;99.90;;;;;;5056102;28;20229;-82
2023/08/21 04:17:55;;;;;;;9.67;5.53;;;14.40;99.90;;;;;;5039839;28;20226;-82
2023/08/21 04:20:22;;;;;;;7.63;4.90;;;14.50;99.90;;;;;;5031256;28;20231;-83
2023/08/21 04:22:49;;;;;;;12.73;6.17;;;14.40;99.90;;;;;;5039548;28;20229;-83
2023/08/21 04:25:16;;;;;;;11.50;6.60;;;14.40;99.90;;;;;;5033203;28;20220;-84
2023/08/21 04:27:43;;;;;;;12.37;5.80;;;14.50;99.90;;;;;;5052894;28;20234;-83
2023/08/21 04:30:11;;;;;;;11.33;5.50;;;14.40;99.90;;;;;;5037647;28;21128;-83
2023/08/21 04:32:38;;;;;;;8.07;5.17;;;14.40;99.90;;;;;;5044003;28;20704;-83
2023/08/21 04:35:08;;;;;;;9.47;5.50;;;14.40;99.90;;;;;;5034717;28;20216;-83
2023/08/21 04:37:35;;;;;;;9.63;5.53;;;14.50;99.90;;;;;;5038586;28;20800;-85
2023/08/21 04:40:03;;;;;;;9.77;4.63;;;14.50;99.90;;;;;;5035133;28;20219;-79
2023/08/21 04:42:29;;;;;;;8.47;5.13;;;14.50;99.90;;;;;;5040919;28;20227;-83
2023/08/21 04:44:56;;;;;;;8.37;4.77;;;14.50;99.90;;;;;;5053746;28;20227;-81
2023/08/21 04:47:25;;;;;;;7.03;4.60;;;14.50;99.90;;;;;;5037192;28;20233;-82
2023/08/21 04:49:56;;;;;;;14.83;7.00;;;14.50;99.90;;;;;;5041419;28;20256;-81
2023/08/21 04:52:25;;;;;;;13.73;6.80;;;14.50;99.90;;;;;;5041532;28;21771;-83
2023/08/21 04:54:52;;;;;;;13.83;7.07;;;14.50;99.90;;;;;;5036196;28;20222;-82
2023/08/21 04:57:20;;;;;;;12.00;5.90;;;14.50;99.90;;;;;;5032474;28;20238;-82
2023/08/21 04:59:47;;;;;;;8.73;5.00;;;14.60;99.90;;;;;;5041160;28;20218;-83
2023/08/21 05:02:14;;;;;;;7.73;4.40;;;14.60;99.90;;;;;;5033936;28;20711;-84
2023/08/21 05:04:41;;;;;;;7.97;4.90;;;14.60;99.90;;;;;;5041166;28;20860;-82
2023/08/21 05:07:09;;;;;;;8.37;5.03;;;14.70;99.90;;;;;;5033987;28;20591;-83
2023/08/21 05:09:37;;;;;;;7.77;4.50;;;14.70;99.90;;;;;;5045926;28;20257;-83
2023/08/21 05:12:06;;;;;;;9.13;4.80;;;14.70;99.90;;;;;;5032327;28;20237;-83
2023/08/21 05:14:32;;;;;;;10.07;5.67;;;14.80;99.90;;;;;;5063040;28;20227;-84
2023/08/21 05:16:59;;;;;;;13.90;5.60;;;14.80;99.90;;;;;;5037289;28;20670;-83
2023/08/21 05:19:26;;;;;;;9.60;6.20;;;14.90;99.90;;;;;;5059846;28;20231;-84
2023/08/21 05:21:53;;;;;;;10.13;4.97;;;14.90;99.90;;;;;;5046403;28;20222;-83
2023/08/21 05:24:20;;;;;;;12.50;6.37;;;14.90;99.90;;;;;;5032801;28;20589;-83
2023/08/21 05:26:54;;;;;;;10.63;6.10;;;15.00;99.90;;;;;;5039439;28;20748;-83
2023/08/21 05:29:21;;;;;;;14.43;6.73;;;15.00;99.90;;;;;;5049940;28;20309;-83
2023/08/21 05:31:48;;;;;;;17.67;7.50;;;15.10;99.90;;;;;;5053172;28;20313;-83
2023/08/21 05:34:15;;;;;;;10.70;6.80;;;15.10;99.90;;;;;;5052122;28;20225;-83
2023/08/21 05:36:42;;;;;;;11.40;6.70;;;15.20;99.90;;;;;;5052131;28;20284;-83
2023/08/21 05:39:09;;;;;;;13.23;6.53;;;15.20;99.90;;;;;;5048933;28;20241;-84
2023/08/21 05:41:36;;;;;;;9.53;5.90;;;15.30;99.90;;;;;;5047915;28;20207;-84
2023/08/21 05:44:05;;;;;;;10.07;5.50;;;15.40;99.90;;;;;;5053217;28;20294;-83
2023/08/21 05:46:33;;;;;;;12.57;6.13;;;15.40;99.90;;;;;;5048033;28;20599;-83
2023/08/21 05:48:59;;;;;;;11.97;6.27;;;15.50;99.90;;;;;;5041881;28;20773;-83
2023/08/21 05:51:26;;;;;;;14.57;6.67;;;15.50;99.90;;;;;;5047116;28;20238;-83
2023/08/21 05:53:53;;;;;;;11.03;5.87;;;15.60;99.90;;;;;;5038727;28;20232;-83
2023/08/21 05:56:20;;;;;;;13.20;5.87;;;15.70;99.90;;;;;;5044248;28;20239;-83
2023/08/21 05:58:47;;;;;;;9.53;5.30;;;15.70;99.90;;;;;;5041404;28;20211;-83
2023/08/21 06:01:15;;;;;;;11.37;5.30;;;15.80;99.90;;;;;;5039647;28;20314;-84
2023/08/21 06:03:42;;;;;;;12.17;5.40;;;15.80;99.90;;;;;;5040451;28;20307;-83
2023/08/21 06:06:29;;;;;;;13.43;4.93;;;15.90;99.90;;;;;;5063689;28;20223;-84
2023/08/21 06:08:56;;;;;;;13.40;5.60;;;16.00;99.90;;;;;;5052096;28;20254;-84
2023/08/21 06:11:23;;;;;;;9.57;5.20;;;16.00;99.90;;;;;;5040874;28;21030;-82
2023/08/21 06:13:49;;;;;;;9.77;5.00;;;16.10;99.90;;;;;;5057345;28;20315;-83
2023/08/21 06:16:17;;;;;;;12.70;4.97;;;16.20;99.90;;;;;;5040079;28;20235;-81
2023/08/21 06:18:46;;;;;;;10.27;4.10;;;16.20;99.90;;;;;;5036578;28;20223;-85
2023/08/21 06:21:13;;;;;;;12.57;4.77;;;16.30;99.90;;;;;;5064912;28;20310;-83
2023/08/21 06:23:39;;;;;;;11.83;4.57;;;16.40;99.90;;;;;;5038064;28;20262;-83
2023/08/21 06:26:06;;;;;;;9.37;3.77;;;16.40;99.90;;;;;;5040505;28;20595;-83
2023/08/21 06:28:33;;;;;;;10.67;3.60;;;16.50;99.90;;;;;;5042048;28;20220;-83
2023/08/21 06:31:03;;;;;;;8.57;3.50;;;16.60;99.90;;;;;;5042531;28;20216;-84
2023/08/21 06:33:31;;;;;;;10.50;3.70;;;16.60;99.90;;;;;;5033925;28;20570;-84
2023/08/21 06:35:58;;;;;;;8.43;3.50;;;16.80;99.90;;;;;;5044442;28;20249;-84
2023/08/21 06:38:25;;;;;;;8.10;3.20;;;16.90;99.90;;;;;;5038921;28;20256;-84
2023/08/21 06:40:51;;;;;;;9.77;3.30;;;16.90;99.90;;;;;;5050041;28;20230;-84
2023/08/21 06:43:18;;;;;;;9.70;3.45;;;17.00;99.90;;;;;;5043114;28;20259;-86
2023/08/21 06:45:47;;;;;;;9.15;3.33;;;17.10;99.90;;;;;;5048595;28;20215;-84
2023/08/21 06:48:14;;;;;;;10.27;3.60;;;17.20;99.90;;;;;;5042389;28;20219;-84
2023/08/21 06:50:42;;;;;;;9.68;3.30;;;17.30;99.90;;;;;;5044007;28;20219;-83
2023/08/21 06:53:09;;;;;;;12.10;2.88;;;17.30;99.90;;;;;;5040859;28;20231;-82
2023/08/21 06:55:35;;;;;;;9.27;2.77;;;17.40;99.90;;;;;;5041414;28;20222;-83
2023/08/21 06:58:02;;;;;;;10.10;3.10;;;17.50;99.90;;;;;;5057406;28;20223;-85
2023/08/21 07:00:29;;;;;;;8.20;2.30;;;17.50;99.90;;;;;;5043034;28;20234;-81
2023/08/21 07:02:56;;;;;;;10.73;2.97;;;17.60;99.90;;;;;;5041468;28;20215;-85
2023/08/21 07:05:22;;;;;;;8.93;2.70;;;17.70;99.90;;;;;;5036342;28;20334;-86
2023/08/21 07:07:50;;;;;;;10.10;2.33;;;17.70;99.90;;;;;;5041827;28;20233;-85
2023/08/21 07:10:17;;;;;;;11.27;2.60;;;17.70;99.90;;;;;;5052582;28;20228;-86
2023/08/21 07:12:44;;;;;;;9.18;2.35;;;17.80;99.90;;;;;;5032132;28;20224;-86
2023/08/21 07:15:11;;;;;;;6.00;1.80;;;17.80;99.90;;;;;;5034413;28;20298;-85
2023/08/21 07:17:38;;;;;;;6.53;2.00;;;17.90;99.90;;;;;;5039603;28;20219;-85
2023/08/21 07:20:05;;;;;;;5.82;2.05;;;18.00;99.90;;;;;;5029214;28;20238;-85
2023/08/21 07:22:32;;;;;;;5.00;1.90;;;18.00;99.90;;;;;;5043613;28;20223;-86
2023/08/21 07:25:03;;;;;;;6.80;2.08;;;18.10;99.90;;;;;;5042142;28;20224;-86
2023/08/21 07:27:30;;;;;;;7.07;2.03;;;18.20;99.90;;;;;;5051580;28;20290;-85
2023/08/21 07:29:57;;;;;;;6.88;1.85;;;18.20;99.90;;;;;;5058271;28;20228;-85
2023/08/21 07:32:24;;;;;;;5.03;1.98;;;18.30;99.90;;;;;;5052725;28;20238;-87
2023/08/21 07:34:53;;;;;;;8.30;2.10;;;18.40;99.90;;;;;;5042622;28;20238;-86
2023/08/21 07:37:20;;;;;;;8.07;1.65;;;18.50;99.90;;;;;;5076382;23;20227;-81
2023/08/21 07:39:47;;;;;;;5.05;1.80;;;18.70;99.90;;;;;;5092711;28;20234;-81
2023/08/21 07:42:15;;;;;;;6.13;1.85;;;19.10;99.90;;;;;;5101418;27;20222;-81
2023/08/21 07:44:42;;;;;;;4.93;1.83;;;19.70;99.90;;;;;;5087404;28;20227;-82
2023/08/21 07:47:08;;;;;;;6.45;1.92;;;20.30;99.90;;;;;;5089891;28;20715;-81
2023/08/21 07:49:35;;;;;;;3.97;1.45;;;21.10;99.90;;;;;;5087657;28;20215;-82
2023/08/21 07:52:04;;;;;;;7.88;1.77;;;21.90;99.90;;;;;;5079962;28;20233;-81
2023/08/21 07:54:30;;;;;;;7.28;1.45;;;22.70;99.90;;;;;;5082914;28;20306;-82
2023/08/21 07:56:57;;;;;;;7.38;1.67;;;23.40;99.90;;;;;;5081158;28;20320;-81
2023/08/21 07:59:25;;;;;;;6.00;1.45;;;24.10;99.90;;;;;;5089605;28;20235;-81
2023/08/21 08:01:52;;;;;;;3.78;1.50;;;24.70;99.90;;;;;;5084047;28;20230;-81
2023/08/21 08:04:20;;;;;;;6.70;1.35;;;25.30;99.90;;;;;;5087698;28;20287;-82
2023/08/21 08:06:47;;;;;;;3.83;1.20;;;25.90;99.90;;;;;;5102656;27;20537;-81
2023/08/21 08:09:13;;;;;;;2.88;1.38;;;26.40;99.90;;;;;;5086857;28;20266;-82
2023/08/21 08:11:40;;;;;;;4.93;1.30;;;26.90;99.90;;;;;;5083172;28;20529;-83
2023/08/21 08:14:07;;;;;;;3.33;1.40;;;27.30;99.90;;;;;;5086380;28;20253;-81
2023/08/21 08:16:35;;;;;;;4.30;1.40;;;27.70;99.90;;;;;;5082955;28;20838;-81
2023/08/21 08:19:02;;;;;;;3.58;1.20;;;28.10;98.90;;;;;;5084991;28;20733;-81
2023/08/21 08:21:28;;;;;;;3.10;1.38;;;28.50;98.30;;;;;;5081944;28;21009;-81
2023/08/21 08:23:55;;;;;;;3.00;1.05;;;28.80;97.60;;;;;;5091966;28;20261;-81
2023/08/21 08:29:34;;;;;;;4.57;1.52;;;29.50;96.80;;;;;;5081532;28;20290;-81
2023/08/21 08:32:03;;;;;;;3.47;1.42;;;30.00;96.10;;;;;;5086392;28;20408;-82
2023/08/21 08:34:29;;;;;;;5.13;1.48;;;30.30;94.10;;;;;;5083874;28;20247;-82
2023/08/21 08:36:56;;;;;;;3.65;1.08;;;30.50;94.30;;;;;;5083184;28;20306;-82
2023/08/21 08:39:23;;;;;;;4.57;1.35;;;30.60;93.30;;;;;;5071979;28;20219;-85
2023/08/21 08:41:56;;;;;;;2.45;1.40;;;30.80;93.10;;;;;;5093914;28;20637;-81
2023/08/21 08:44:26;;;;;;;4.93;1.10;;;31.00;92.30;;;;;;5086019;28;20223;-81
2023/08/21 08:46:53;;;;;;;3.40;1.20;;;31.10;90.50;;;;;;5085766;28;20235;-82
2023/08/21 08:49:22;;;;;;;3.20;1.15;;;31.30;91.10;;;;;;5081880;28;20219;-83
2023/08/21 08:51:50;;;;;;;3.55;1.20;;;31.40;90.00;;;;;;5102782;28;20276;-82
2023/08/21 08:54:18;;;;;;;4.22;1.08;;;31.60;90.30;;;;;;5081427;28;20226;-83
2023/08/21 08:56:45;;;;;;;3.65;1.23;;;31.70;88.90;;;;;;5085672;28;20227;-83
2023/08/21 08:59:14;;;;;;;2.75;1.20;;;31.80;88.20;;;;;;5080725;28;20215;-81
2023/08/21 09:01:41;;;;;;;3.45;1.30;;;32.00;87.90;;;;;;5099157;28;20226;-81
2023/08/21 09:04:08;;;;;;;2.40;1.25;;;32.10;87.20;;;;;;5071381;28;20253;-82
2023/08/21 09:06:37;;;;;;;3.33;1.15;;;32.30;85.40;;;;;;5084079;28;20360;-83
2023/08/21 09:09:04;;;;;;;2.00;0.90;;;32.40;83.40;;;;;;5076207;28;20227;-81
2023/08/21 09:11:33;;;;;;;2.67;1.10;;;32.60;85.10;;;;;;5087163;28;20225;-84
2023/08/21 09:14:00;;;;;;;2.92;1.02;;;32.70;83.00;;;;;;5086313;28;20246;-83
2023/08/21 09:16:27;;;;;;;2.33;1.02;;;32.90;82.50;;;;;;5082768;28;20235;-82
2023/08/21 09:18:56;;;;;;;2.45;1.05;;;33.10;79.50;;;;;;5090901;28;20231;-79
2023/08/21 09:21:24;;;;;;;2.45;1.00;;;33.30;78.40;;;;;;5104474;28;20234;-81
2023/08/21 09:23:58;;;;;;;3.10;0.90;;;33.40;77.00;;;;;;5089908;28;20219;-81
2023/08/21 09:26:25;;;;;;;2.50;0.98;;;33.50;75.40;;;;;;5109188;28;20291;-83
2023/08/21 09:28:53;;;;;;;3.72;1.33;;;33.60;76.20;;;;;;5088963;28;20314;-82
2023/08/21 09:31:23;;;;;;;4.60;1.30;;;33.60;74.50;;;;;;5094302;28;20482;-81
2023/08/21 09:33:59;;;;;;;2.90;1.35;;;33.60;73.90;;;;;;5085998;28;20684;-81
2023/08/21 09:36:25;;;;;;;1.98;0.98;;;33.70;73.30;;;;;;5086302;28;20236;-80
2023/08/21 09:38:54;;;;;;;2.53;0.90;;;33.80;72.30;;;;;;5087049;28;20468;-80
2023/08/21 09:41:21;;;;;;;2.63;1.15;;;33.80;71.50;;;;;;5082898;28;20827;-81
2023/08/21 09:43:48;;;;;;;2.13;0.85;;;33.70;70.50;;;;;;5093174;28;20233;-80
2023/08/21 09:46:16;;;;;;;2.83;1.27;;;33.60;70.90;;;;;;5083516;28;20226;-81
2023/08/21 09:48:44;;;;;;;1.98;0.93;;;33.50;71.00;;;;;;5080498;28;20225;-80
2023/08/21 09:51:11;;;;;;;2.25;1.13;;;33.50;69.10;;;;;;5087144;28;20222;-81
2023/08/21 09:53:38;;;;;;;3.10;0.98;;;33.50;69.40;;;;;;5112189;28;20231;-80
2023/08/21 09:56:08;;;;;;;3.03;0.93;;;33.50;70.40;;;;;;5096231;28;20747;-81
2023/08/21 09:58:36;;;;;;;2.15;1.10;;;33.60;68.80;;;;;;5071286;28;20234;-80
2023/08/21 10:01:11;;;;;;;3.05;1.08;;;33.60;68.90;;;;;;5101912;28;20306;-80
2023/08/21 10:03:39;;;;;;;4.18;1.00;;;33.70;68.10;;;;;;5088136;28;20752;-81
2023/08/21 10:06:08;;;;;;;2.88;1.25;;;33.90;67.70;;;;;;5092739;28;20226;-80
2023/08/21 10:08:38;;;;;;;3.05;1.20;;;34.10;67.70;;;;;;5099805;28;20318;-80
2023/08/21 10:11:08;;;;;;;3.13;1.08;;;34.20;66.70;;;;;;5089211;28;20212;-81
2023/08/21 10:13:37;;;;;;;3.75;0.95;;;34.40;65.40;;;;;;5108582;28;20248;-81
2023/08/21 10:16:05;;;;;;;1.90;0.88;;;34.40;63.60;;;;;;5077146;28;20306;-81
2023/08/21 10:18:33;;;;;;;1.98;1.15;;;34.40;63.00;;;;;;5094436;28;20355;-81
2023/08/21 10:21:12;;;;;;;2.15;1.00;;;34.30;62.00;;;;;;5094013;28;20230;-80
2023/08/21 10:23:41;;;;;;;1.90;0.90;;;34.10;61.20;;;;;;5087330;28;20223;-80
2023/08/21 10:26:11;;;;;;;2.50;1.00;;;34.00;61.60;;;;;;5095238;28;20848;-80
2023/08/21 10:28:49;;;;;;;2.65;0.90;;;33.80;61.40;;;;;;5094230;28;20230;-81
2023/08/21 10:31:30;;;;;;;3.70;1.00;;;33.60;62.00;;;;;;5084128;28;20701;-81
2023/08/21 10:33:58;;;;;;;3.95;0.90;;;33.60;61.60;;;;;;5081761;28;20287;-80
2023/08/21 10:37:09;;;;;;;2.95;0.90;;;33.60;62.00;;;;;;5097453;28;20214;-81
2023/08/21 10:39:37;;;;;;;2.38;0.95;;;33.50;61.10;;;;;;5088694;28;20222;-82
2023/08/21 10:42:07;;;;;;;2.17;0.98;;;33.40;60.30;;;;;;5093668;28;20217;-80
2023/08/21 10:44:48;;;;;;;1.75;0.98;;;33.20;60.10;;;;;;5095107;28;20690;-81
2023/08/21 10:47:17;;;;;;;2.30;0.95;;;33.10;60.70;;;;;;5094514;28;20225;-81
2023/08/21 10:49:46;;;;;;;6.65;1.35;;;33.00;60.90;;;;;;5102566;28;20250;-81
2023/08/21 10:52:13;;;;;;;2.30;0.77;;;33.00;60.60;;;;;;5091369;28;20883;-81
2023/08/21 10:54:48;;;;;;;1.40;0.80;;;33.00;60.10;;;;;;5097948;28;20691;-81
2023/08/21 10:57:16;;;;;;;2.83;1.00;;;33.00;61.20;;;;;;5102580;28;20218;-81
2023/08/21 10:59:57;;;;;;;2.35;0.80;;;33.10;61.00;;;;;;5109751;27;20226;-81
2023/08/21 11:02:25;;;;;;;2.15;0.80;;;33.30;59.70;;;;;;5087968;28;20271;-81
2023/08/21 11:04:52;;;;;;;2.53;1.02;;;33.40;60.10;;;;;;5095992;27;20245;-81
2023/08/21 11:07:19;;;;;;;3.83;0.90;;;33.50;59.30;;;;;;5106970;27;20748;-81
2023/08/21 11:09:46;;;;;;;4.57;0.95;;;33.50;59.20;;;;;;5099284;28;20287;-81
2023/08/21 11:12:16;;;;;;;3.03;1.20;;;33.60;58.80;;;;;;5102448;28;20214;-80
2023/08/21 11:14:43;;;;;;;2.05;0.95;;;33.80;59.20;;;;;;5090558;28;20233;-81
2023/08/21 11:17:11;;;;;;;1.70;0.80;;;34.00;59.10;;;;;;5095077;28;21803;-81
2023/08/21 11:19:39;;;;;;;2.55;1.15;;;34.10;59.00;;;;;;5095383;28;20214;-81
2023/08/21 11:22:06;;;;;;;2.38;0.95;;;34.10;58.10;;;;;;5080506;28;20614;-80
2023/08/21 11:24:41;;;;;;;1.50;0.90;;;34.00;58.00;;;;;;5093616;28;20222;-80
2023/08/21 11:27:08;;;;;;;2.42;0.85;;;33.80;56.00;;;;;;5089659;28;20252;-82
2023/08/21 11:29:39;;;;;;;2.20;1.08;;;33.50;56.80;;;;;;5095549;28;20267;-81
2023/08/21 11:32:09;;;;;;;2.95;1.05;;;33.30;56.60;;;;;;5094341;28;20330;-80
2023/08/21 11:34:36;;;;;;;2.40;0.93;;;33.10;56.40;;;;;;5095776;28;20215;-80
2023/08/21 11:37:04;;;;;;;2.80;1.00;;;32.70;56.90;;;;;;5102132;27;20238;-80
2023/08/21 11:39:40;;;;;;;3.63;1.20;;;32.50;57.10;;;;;;5095845;28;20979;-80
2023/08/21 11:42:11;;;;;;;2.55;0.95;;;32.20;57.60;;;;;;5090851;28;20245;-81
2023/08/21 11:44:43;;;;;;;3.35;1.05;;;32.10;57.90;;;;;;5104175;28;20218;-81
2023/08/21 11:47:10;;;;;;;3.78;1.10;;;31.90;58.90;;;;;;5093352;28;20219;-81
2023/08/21 11:49:38;;;;;;;1.65;0.80;;;31.70;59.40;;;;;;5101135;28;20315;-81
2023/08/21 11:52:05;;;;;;;2.00;0.75;;;31.70;58.80;;;;;;5111893;27;20215;-81
2023/08/21 11:54:35;;;;;;;1.95;0.95;;;31.70;58.40;;;;;;5090065;28;20256;-81
2023/08/21 11:57:05;;;;;;;1.73;0.90;;;31.70;57.90;;;;;;5098062;28;20246;-81
2023/08/21 11:59:32;;;;;;;1.58;0.80;;;31.60;57.60;;;;;;5103526;28;20246;-81
2023/08/21 12:02:00;;;;;;;2.08;1.00;;;31.50;57.40;;;;;;5100035;28;20505;-80
2023/08/21 12:04:27;;;;;;;2.55;1.00;;;31.40;57.30;;;;;;5093614;28;20587;-81
2023/08/21 12:06:54;;;;;;;4.53;1.17;;;31.30;57.10;;;;;;5104323;28;20219;-81
2023/08/21 12:09:21;;;;;;;2.50;1.13;;;31.30;57.20;;;;;;5113430;27;20222;-81
2023/08/21 12:11:47;;;;;;;2.40;1.10;;;31.40;57.70;;;;;;5097798;28;20306;-81
2023/08/21 12:14:14;;;;;;;1.88;0.80;;;31.50;57.90;;;;;;5095111;28;20218;-81
2023/08/21 12:16:41;;;;;;;2.63;1.00;;;31.70;58.30;;;;;;5091347;28;20219;-81
2023/08/21 12:19:11;;;;;;;2.75;0.75;;;31.80;56.70;;;;;;5092727;28;20715;-81
2023/08/21 12:21:38;;;;;;;2.50;0.82;;;31.90;57.10;;;;;;5099188;28;20226;-81
2023/08/21 12:24:06;;;;;;;1.20;0.73;;;32.00;56.30;;;;;;5088249;28;20720;-81
2023/08/21 12:26:33;;;;;;;2.67;1.00;;;32.00;55.60;;;;;;5104006;28;21053;-81
2023/08/21 12:29:01;;;;;;;6.70;1.10;;;31.80;55.70;;;;;;5093221;28;20329;-80
2023/08/21 12:31:28;;;;;;;2.83;1.10;;;31.80;55.90;;;;;;5104087;27;20813;-81
2023/08/21 12:33:55;;;;;;;3.28;1.00;;;31.70;56.10;;;;;;5103930;28;20233;-80
2023/08/21 12:36:23;;;;;;;2.22;0.90;;;31.70;56.30;;;;;;5103481;28;20222;-81
2023/08/21 12:38:50;;;;;;;3.28;1.10;;;31.70;56.70;;;;;;5108600;28;20217;-81
2023/08/21 12:41:17;;;;;;;2.67;1.30;;;31.70;56.10;;;;;;5107678;28;21046;-81
2023/08/21 12:43:43;;;;;;;3.33;0.90;;;31.80;56.90;;;;;;5099997;28;20223;-81
2023/08/21 12:46:10;;;;;;;1.50;0.82;;;31.80;56.90;;;;;;5100608;28;20333;-82
2023/08/21 12:48:37;;;;;;;1.25;0.85;;;31.80;56.60;;;;;;5094382;28;20230;-81
2023/08/21 12:51:04;;;;;;;3.50;1.42;;;31.80;55.80;;;;;;5093322;28;20283;-81
2023/08/21 12:53:32;;;;;;;3.95;0.90;;;31.80;55.40;;;;;;5101800;28;20602;-81